Time;durP1;ratioP1;P1;durP2;ratioP2;P2;SDS_P1;SDS_P2;PMS_P1;PMS_P2;Temp;Humidity;BMP_temperature;BMP_pressure;BME280_temperature;BME280_humidity;BME280_pressure;Samples;Min_cycle;Max_cycle;Signal;HPM_P1;HPM_P2
2022/09/13 00:01:16;;;;;;;0.40;0.40;;;13.50;99.90;;;;;;5053612;28;20025;-74
2022/09/13 00:03:42;;;;;;;0.10;0.10;;;13.50;99.90;;;;;;5053646;28;20514;-74
2022/09/13 00:06:13;;;;;;;0.30;0.30;;;13.50;99.90;;;;;;5035673;28;20025;-74
2022/09/13 00:08:39;;;;;;;;;;;13.60;99.90;;;;;;5054160;28;20025;-74
2022/09/13 00:11:05;;;;;;;0.20;0.20;;;13.80;99.90;;;;;;5053543;28;19995;-74
2022/09/13 00:13:31;;;;;;;0.10;0.10;;;14.00;99.90;;;;;;5035533;28;20040;-74
2022/09/13 00:15:59;;;;;;;0.17;0.17;;;14.10;99.90;;;;;;5053251;28;20025;-74
2022/09/13 00:18:25;;;;;;;0.20;0.20;;;14.00;99.90;;;;;;5053469;28;20107;-73
2022/09/13 00:20:51;;;;;;;0.10;0.10;;;13.90;99.90;;;;;;5053354;28;20057;-74
2022/09/13 00:23:17;;;;;;;0.70;0.40;;;13.90;99.90;;;;;;5053246;28;20029;-74
2022/09/13 00:25:43;;;;;;;0.20;0.20;;;13.80;99.90;;;;;;5053153;28;20039;-74
2022/09/13 00:28:08;;;;;;;0.28;0.28;;;13.70;99.90;;;;;;5034400;28;20055;-74
2022/09/13 00:30:34;;;;;;;0.57;0.57;;;13.60;99.90;;;;;;5035347;28;20040;-74
2022/09/13 00:33:03;;;;;;;0.77;0.70;;;13.50;99.90;;;;;;5052867;28;20027;-74
2022/09/13 00:35:30;;;;;;;0.20;0.20;;;13.40;99.90;;;;;;5052865;28;20024;-74
2022/09/13 00:37:58;;;;;;;0.20;0.20;;;13.40;99.90;;;;;;5053030;28;20543;-74
2022/09/13 00:40:24;;;;;;;0.10;0.10;;;13.40;99.90;;;;;;5052955;28;20025;-73
2022/09/13 00:42:50;;;;;;;0.10;0.10;;;13.30;99.90;;;;;;5052860;28;20434;-74
2022/09/13 00:45:17;;;;;;;0.25;0.25;;;13.50;99.90;;;;;;5052614;28;20027;-74
2022/09/13 00:48:03;;;;;;;0.20;0.20;;;13.50;99.90;;;;;;5035114;28;20094;-74
2022/09/13 00:50:39;;;;;;;0.20;0.20;;;13.40;99.90;;;;;;5110027;27;20373;-73
2022/09/13 00:53:13;;;;;;;0.17;0.17;;;13.20;99.90;;;;;;5091669;28;20035;-74
2022/09/13 00:55:48;;;;;;;0.45;0.45;;;13.10;99.90;;;;;;5108374;28;20028;-74
2022/09/13 00:58:24;;;;;;;0.20;0.20;;;13.20;99.90;;;;;;5109986;28;20051;-73
2022/09/13 01:00:51;;;;;;;0.40;0.40;;;13.20;99.90;;;;;;5091359;28;20093;-73
2022/09/13 01:03:20;;;;;;;0.15;0.15;;;13.30;99.90;;;;;;5108362;28;20019;-73
2022/09/13 01:05:57;;;;;;;0.32;0.32;;;13.50;99.90;;;;;;5109544;28;20044;-74
2022/09/13 01:08:23;;;;;;;0.10;0.10;;;13.50;99.90;;;;;;5108447;28;20077;-74
2022/09/13 01:10:51;;;;;;;0.10;0.10;;;13.50;99.90;;;;;;5109654;28;20020;-74
2022/09/13 01:13:20;;;;;;;0.20;0.20;;;13.60;99.90;;;;;;5108231;28;20024;-74
2022/09/13 01:15:46;;;;;;;0.10;0.10;;;13.60;99.90;;;;;;5108155;28;20028;-73
2022/09/13 01:18:12;;;;;;;0.30;0.30;;;13.60;99.90;;;;;;5109487;28;20081;-74
2022/09/13 01:20:45;;;;;;;0.60;0.60;;;13.40;99.90;;;;;;5109500;28;20028;-74
2022/09/13 01:23:41;;;;;;;0.10;0.10;;;13.40;99.90;;;;;;5108072;28;20028;-74
2022/09/13 01:26:15;;;;;;;0.30;0.30;;;13.40;99.90;;;;;;5109190;28;20051;-74
2022/09/13 01:29:05;;;;;;;0.10;0.10;;;13.60;99.90;;;;;;5109247;28;20483;-74
2022/09/13 01:31:51;;;;;;;0.15;0.15;;;13.70;99.90;;;;;;5107960;28;20016;-73
2022/09/13 01:34:20;;;;;;;0.40;0.40;;;13.70;99.90;;;;;;5109176;28;20483;-74
2022/09/13 01:37:26;;;;;;;0.30;0.30;;;13.60;99.90;;;;;;5108952;28;20471;-74
2022/09/13 01:40:12;;;;;;;0.10;0.10;;;13.50;99.90;;;;;;5090335;28;20035;-73
2022/09/13 01:42:53;;;;;;;0.22;0.22;;;13.40;99.90;;;;;;5109271;28;20016;-74
2022/09/13 01:45:21;;;;;;;0.20;0.20;;;13.40;99.90;;;;;;5107531;28;20085;-74
2022/09/13 01:48:12;;;;;;;0.52;0.52;;;13.30;99.90;;;;;;5090677;28;20031;-73
2022/09/13 01:50:58;;;;;;;0.20;0.20;;;13.20;99.90;;;;;;5107637;28;20036;-74
2022/09/13 01:53:57;;;;;;;0.20;0.20;;;13.20;99.90;;;;;;5108873;28;20032;-74
2022/09/13 01:56:33;;;;;;;0.10;0.10;;;13.30;99.90;;;;;;5108695;28;20395;-74
2022/09/13 01:59:24;;;;;;;0.10;0.10;;;13.20;99.90;;;;;;5108717;28;20027;-74
2022/09/13 02:02:02;;;;;;;0.20;0.20;;;13.20;99.90;;;;;;5094282;28;20036;-74
2022/09/13 02:04:35;;;;;;;0.17;0.17;;;13.30;99.90;;;;;;5093976;28;20028;-74
2022/09/13 02:07:14;;;;;;;0.20;0.20;;;13.20;99.90;;;;;;5076819;28;20047;-74
2022/09/13 02:09:46;;;;;;;0.10;0.10;;;13.20;99.90;;;;;;5094952;28;20024;-74
2022/09/13 02:12:17;;;;;;;0.22;0.22;;;13.40;99.90;;;;;;5094841;28;20020;-74
2022/09/13 02:14:48;;;;;;;1.65;0.30;;;13.30;99.90;;;;;;5094853;28;20056;-74
2022/09/13 02:17:22;;;;;;;0.68;0.68;;;13.30;99.90;;;;;;5076552;28;20020;-74
2022/09/13 02:19:55;;;;;;;0.15;0.15;;;13.30;99.90;;;;;;5094794;28;20073;-74
2022/09/13 02:22:28;;;;;;;0.10;0.10;;;13.30;99.90;;;;;;5094676;28;20098;-74
2022/09/13 02:24:59;;;;;;;0.45;0.45;;;13.40;99.90;;;;;;5093335;28;20073;-74
2022/09/13 02:27:27;;;;;;;0.10;0.10;;;13.60;99.90;;;;;;5094741;28;20020;-74
2022/09/13 02:30:00;;;;;;;0.13;0.13;;;13.70;99.90;;;;;;5076461;28;20024;-74
2022/09/13 02:32:35;;;;;;;0.10;0.10;;;13.60;99.90;;;;;;5094407;28;20521;-74
2022/09/13 02:35:04;;;;;;;0.10;0.10;;;13.70;99.90;;;;;;5092886;28;20024;-74
2022/09/13 02:37:33;;;;;;;0.10;0.10;;;13.50;99.90;;;;;;5093196;28;20031;-74
2022/09/13 02:40:03;;;;;;;0.10;0.10;;;13.40;99.90;;;;;;5093150;28;20031;-74
2022/09/13 02:42:37;;;;;;;0.10;0.10;;;13.30;99.90;;;;;;5094218;28;20495;-74
2022/09/13 02:45:05;;;;;;;0.10;0.10;;;13.30;99.90;;;;;;5093003;28;20479;-74
2022/09/13 02:47:56;;;;;;;7.13;0.43;;;13.40;99.90;;;;;;5093026;28;20032;-73
2022/09/13 02:51:03;;;;;;;0.10;0.10;;;13.50;99.90;;;;;;5094142;28;20118;-74
2022/09/13 02:53:48;;;;;;;3.20;2.85;;;13.40;99.90;;;;;;5092807;28;20032;-74
2022/09/13 02:56:46;;;;;;;0.10;0.10;;;13.40;99.90;;;;;;5092488;28;20166;-74
2022/09/13 02:59:20;;;;;;;0.10;0.10;;;13.40;99.90;;;;;;5093948;28;20383;-74
2022/09/13 03:01:55;;;;;;;0.17;0.17;;;13.40;99.90;;;;;;5093873;28;20513;-74
2022/09/13 03:04:21;;;;;;;0.10;0.10;;;13.40;99.90;;;;;;5094033;28;20058;-73
2022/09/13 03:06:49;;;;;;;0.40;0.40;;;13.40;99.90;;;;;;5093739;28;20081;-74
2022/09/13 03:09:16;;;;;;;0.20;0.20;;;13.40;99.90;;;;;;5092452;28;20020;-74
2022/09/13 03:12:02;;;;;;;0.20;0.20;;;13.30;99.90;;;;;;5091900;28;20059;-74
2022/09/13 03:14:54;;;;;;;0.10;0.10;;;13.30;99.90;;;;;;5093825;28;20530;-74
2022/09/13 03:17:23;;;;;;;0.20;0.20;;;13.30;99.90;;;;;;5093670;28;20052;-74
2022/09/13 03:20:06;;;;;;;0.20;0.20;;;13.30;99.90;;;;;;5092359;28;20036;-73
2022/09/13 03:22:32;;;;;;;0.47;0.35;;;13.30;99.90;;;;;;5093553;28;20111;-74
2022/09/13 03:25:35;;;;;;;0.10;0.10;;;13.20;99.90;;;;;;5093378;28;20104;-73
2022/09/13 03:28:26;;;;;;;0.10;0.10;;;13.20;99.90;;;;;;5093544;28;20615;-73
2022/09/13 03:31:07;;;;;;;0.50;0.50;;;13.10;99.90;;;;;;5093324;28;20032;-74
2022/09/13 03:33:45;;;;;;;0.30;0.30;;;12.90;99.90;;;;;;5092143;28;20098;-73
2022/09/13 03:36:22;;;;;;;0.20;0.20;;;12.70;99.90;;;;;;5093140;28;20433;-73
2022/09/13 03:39:12;;;;;;;0.35;0.30;;;12.60;99.90;;;;;;5092111;28;20038;-73
2022/09/13 03:41:44;;;;;;;0.20;0.20;;;12.60;99.90;;;;;;5092065;28;20085;-73
2022/09/13 03:44:12;;;;;;;;;;;12.40;99.90;;;;;;5093535;28;20028;-74
2022/09/13 03:46:46;;;;;;;0.30;0.30;;;12.40;99.90;;;;;;5091589;28;19908;-74
2022/09/13 03:49:17;;;;;;;0.10;0.10;;;12.40;99.90;;;;;;5091648;28;20111;-74
2022/09/13 03:51:46;;;;;;;0.13;0.13;;;12.60;99.90;;;;;;5093118;28;20020;-74
2022/09/13 03:54:24;;;;;;;0.17;0.17;;;12.70;99.90;;;;;;5092827;28;20024;-74
2022/09/13 03:57:12;;;;;;;0.20;0.20;;;12.80;99.90;;;;;;5092737;28;20016;-74
2022/09/13 03:59:48;;;;;;;0.38;0.38;;;12.90;99.90;;;;;;5092571;28;20047;-74
2022/09/13 04:02:15;;;;;;;0.20;0.20;;;12.80;99.90;;;;;;5092847;28;20034;-74
2022/09/13 04:04:42;;;;;;;0.20;0.20;;;12.70;99.90;;;;;;5092784;28;20025;-73
2022/09/13 04:07:11;;;;;;;0.20;0.20;;;12.60;99.90;;;;;;5092526;28;20027;-73
2022/09/13 04:09:37;;;;;;;0.20;0.20;;;12.60;99.90;;;;;;5091231;28;20032;-74
2022/09/13 04:12:03;;;;;;;0.10;0.10;;;12.60;99.90;;;;;;5074312;28;20499;-74
2022/09/13 04:14:29;;;;;;;0.20;0.20;;;12.60;99.90;;;;;;5091360;28;20483;-73
2022/09/13 04:16:56;;;;;;;0.10;0.10;;;12.50;99.90;;;;;;5092355;28;20468;-73
2022/09/13 04:19:24;;;;;;;0.13;0.13;;;12.60;99.90;;;;;;5091239;28;20020;-74
2022/09/13 04:21:51;;;;;;;0.20;0.20;;;12.70;99.90;;;;;;5092498;28;20024;-74
2022/09/13 04:24:18;;;;;;;0.20;0.20;;;12.90;99.90;;;;;;5090801;28;20039;-74
2022/09/13 04:26:48;;;;;;;0.10;0.10;;;13.10;99.90;;;;;;5091005;28;20132;-73
2022/09/13 04:29:14;;;;;;;0.10;0.10;;;13.20;99.90;;;;;;5091160;28;20020;-74
2022/09/13 04:31:40;;;;;;;0.10;0.10;;;13.20;99.90;;;;;;5074292;28;20031;-74
2022/09/13 04:34:06;;;;;;;0.30;0.30;;;13.30;99.90;;;;;;5092242;28;20384;-74
2022/09/13 04:36:32;;;;;;;0.10;0.10;;;13.10;99.90;;;;;;5092074;28;20012;-74
2022/09/13 04:38:59;;;;;;;0.10;0.10;;;13.10;99.90;;;;;;5092077;28;20513;-74
2022/09/13 04:41:25;;;;;;;0.10;0.10;;;13.10;99.90;;;;;;5090916;28;20077;-73
2022/09/13 04:43:51;;;;;;;0.30;0.30;;;13.00;99.90;;;;;;5092146;28;20613;-74
2022/09/13 04:46:17;;;;;;;0.10;0.10;;;12.80;99.90;;;;;;5091976;28;20028;-74
2022/09/13 04:48:50;;;;;;;0.17;0.17;;;12.80;99.90;;;;;;5073837;28;20028;-73
2022/09/13 04:51:17;;;;;;;0.20;0.20;;;12.80;99.90;;;;;;5092130;28;20434;-73
2022/09/13 04:53:44;;;;;;;0.20;0.20;;;12.70;99.90;;;;;;5092034;28;20537;-74
2022/09/13 04:56:12;;;;;;;0.10;0.10;;;12.60;99.90;;;;;;5091861;28;20383;-74
2022/09/13 04:58:39;;;;;;;0.10;0.10;;;12.70;99.90;;;;;;5090679;28;20031;-73
2022/09/13 05:01:07;;;;;;;0.20;0.20;;;12.80;99.90;;;;;;5091757;28;20472;-74
2022/09/13 05:03:35;;;;;;;0.45;0.45;;;12.80;99.90;;;;;;5091838;28;20028;-74
2022/09/13 05:06:05;;;;;;;0.65;0.55;;;12.90;99.90;;;;;;5090331;28;20024;-74
2022/09/13 05:08:31;;;;;;;0.40;0.40;;;12.70;99.90;;;;;;5091934;28;20411;-74
2022/09/13 05:10:57;;;;;;;0.20;0.20;;;12.70;99.90;;;;;;5091843;28;20012;-74
2022/09/13 05:13:24;;;;;;;0.15;0.15;;;12.70;99.90;;;;;;5090589;28;20027;-74
2022/09/13 05:15:57;;;;;;;0.15;0.15;;;12.70;99.90;;;;;;5090392;28;20392;-74
2022/09/13 05:18:25;;;;;;;0.20;0.20;;;12.80;99.90;;;;;;5090483;28;20024;-74
2022/09/13 05:20:55;;;;;;;0.20;0.20;;;12.90;99.90;;;;;;5091814;28;20024;-74
2022/09/13 05:23:22;;;;;;;0.40;0.40;;;12.90;99.90;;;;;;5091679;28;20154;-73
2022/09/13 05:25:57;;;;;;;0.20;0.20;;;12.70;99.90;;;;;;5091586;28;20020;-74
2022/09/13 05:28:24;;;;;;;0.20;0.20;;;12.70;99.90;;;;;;5090331;28;20176;-74
2022/09/13 05:30:58;;;;;;;0.20;0.20;;;12.80;99.90;;;;;;5091668;28;20027;-73
2022/09/13 05:33:26;;;;;;;0.15;0.15;;;12.90;99.90;;;;;;5089981;28;20038;-74
2022/09/13 05:35:52;;;;;;;0.20;0.20;;;12.90;99.90;;;;;;5099886;28;20028;-74
2022/09/13 05:38:18;;;;;;;0.30;0.30;;;13.00;99.90;;;;;;5099729;28;20019;-74
2022/09/13 05:40:44;;;;;;;0.30;0.30;;;13.10;99.90;;;;;;5114648;28;20071;-73
2022/09/13 05:43:10;;;;;;;0.40;0.40;;;13.10;99.90;;;;;;5105089;28;20448;-74
2022/09/13 05:45:36;;;;;;;2.47;0.80;;;13.10;99.90;;;;;;5095057;28;20149;-73
2022/09/13 05:48:02;;;;;;;0.82;0.40;;;13.00;99.90;;;;;;5095281;28;20037;-73
2022/09/13 05:50:27;;;;;;;0.20;0.20;;;13.10;99.90;;;;;;5095026;28;20078;-74
2022/09/13 05:52:54;;;;;;;0.20;0.20;;;13.10;99.90;;;;;;5114132;28;20099;-74
2022/09/13 05:55:21;;;;;;;0.13;0.13;;;13.20;99.90;;;;;;5115405;28;20019;-74
2022/09/13 05:57:47;;;;;;;0.20;0.20;;;13.30;99.90;;;;;;5115493;28;20685;-74
2022/09/13 06:00:14;;;;;;;0.20;0.20;;;13.40;99.90;;;;;;5115063;28;20094;-74
2022/09/13 06:02:40;;;;;;;0.40;0.40;;;13.40;99.90;;;;;;5113992;28;20024;-73
2022/09/13 06:05:09;;;;;;;0.10;0.10;;;13.40;99.90;;;;;;5094048;28;20135;-74
2022/09/13 06:07:35;;;;;;;0.13;0.13;;;13.40;99.90;;;;;;5093483;28;20472;-74
2022/09/13 06:10:01;;;;;;;0.17;0.17;;;13.40;99.90;;;;;;5094660;28;20020;-74
2022/09/13 06:12:26;;;;;;;1.08;0.50;;;13.50;99.90;;;;;;5094607;28;20436;-74
2022/09/13 06:14:52;;;;;;;0.20;0.20;;;13.50;99.90;;;;;;5094596;28;20052;-74
2022/09/13 06:17:18;;;;;;;0.90;0.85;;;13.60;99.90;;;;;;5093208;28;20028;-74
2022/09/13 06:19:44;;;;;;;0.10;0.10;;;13.70;99.90;;;;;;5094593;28;20020;-74
2022/09/13 06:22:09;;;;;;;0.20;0.20;;;13.70;99.90;;;;;;5093197;28;20138;-73
2022/09/13 06:24:38;;;;;;;0.40;0.40;;;13.80;99.90;;;;;;5094548;28;20472;-73
2022/09/13 06:27:04;;;;;;;0.30;0.30;;;13.90;99.90;;;;;;5093203;28;20073;-74
2022/09/13 06:29:30;;;;;;;0.30;0.30;;;13.90;99.90;;;;;;5093155;28;20030;-74
2022/09/13 06:31:57;;;;;;;2.88;0.95;;;14.00;99.90;;;;;;5094263;28;20035;-74
2022/09/13 06:34:23;;;;;;;0.10;0.10;;;14.00;99.90;;;;;;5094416;28;20016;-74
2022/09/13 06:36:49;;;;;;;0.47;0.47;;;14.20;99.90;;;;;;5092903;28;20024;-74
2022/09/13 06:39:14;;;;;;;0.38;0.30;;;14.30;99.90;;;;;;5092870;28;20031;-73
2022/09/13 06:41:40;;;;;;;0.52;0.43;;;14.30;99.90;;;;;;5094372;28;20483;-74
2022/09/13 06:44:06;;;;;;;0.73;0.73;;;14.50;99.90;;;;;;5113830;28;20019;-74
2022/09/13 06:46:34;;;;;;;0.55;0.50;;;14.60;99.90;;;;;;5112927;28;20094;-74
2022/09/13 06:49:02;;;;;;;0.15;0.15;;;14.80;99.90;;;;;;5106849;28;20024;-73
2022/09/13 06:51:29;;;;;;;0.15;0.15;;;14.90;99.90;;;;;;5098188;28;20024;-74
2022/09/13 06:53:58;;;;;;;0.20;0.20;;;15.00;99.90;;;;;;5112264;28;20058;-75
2022/09/13 06:56:36;;;;;;;0.20;0.20;;;15.20;99.90;;;;;;5110390;28;20024;-74
2022/09/13 06:59:05;;;;;;;0.10;0.10;;;15.30;99.90;;;;;;5093684;28;20052;-74
2022/09/13 07:01:37;;;;;;;0.10;0.10;;;15.40;99.90;;;;;;5091736;28;20051;-74
2022/09/13 07:04:21;;;;;;;0.35;0.35;;;15.60;99.90;;;;;;5094992;28;20016;-74
2022/09/13 07:06:48;;;;;;;0.10;0.10;;;15.70;99.90;;;;;;5091662;28;20032;-75
2022/09/13 07:09:20;;;;;;;0.10;0.10;;;15.90;99.90;;;;;;5087307;28;20089;-74
2022/09/13 07:11:48;;;;;;;0.10;0.10;;;16.00;99.90;;;;;;5055385;28;20506;-74
2022/09/13 07:14:17;;;;;;;0.08;0.08;;;16.20;99.90;;;;;;5071684;28;20021;-74
2022/09/13 07:16:44;;;;;;;0.10;0.10;;;16.30;99.90;;;;;;5072268;28;20032;-75
2022/09/13 07:19:21;;;;;;;0.15;0.15;;;16.50;99.90;;;;;;5071950;28;20028;-74
2022/09/13 07:21:48;;;;;;;0.10;0.10;;;16.60;99.90;;;;;;5081827;28;20023;-75
2022/09/13 07:24:15;;;;;;;0.10;0.10;;;16.70;99.90;;;;;;5093037;28;20376;-75
2022/09/13 07:26:41;;;;;;;0.10;0.10;;;16.90;99.90;;;;;;5092895;28;20035;-75
2022/09/13 07:29:10;;;;;;;0.10;0.10;;;16.90;99.90;;;;;;5092866;28;20027;-74
2022/09/13 07:31:38;;;;;;;0.10;0.10;;;17.10;99.90;;;;;;5092773;28;20035;-75
2022/09/13 07:34:07;;;;;;;0.10;0.10;;;17.20;99.90;;;;;;5092859;28;20475;-75
2022/09/13 07:36:34;;;;;;;0.10;0.10;;;17.20;99.90;;;;;;5092733;28;20024;-75
2022/09/13 07:39:01;;;;;;;0.10;0.10;;;17.40;99.90;;;;;;5091547;28;20024;-74
2022/09/13 07:41:29;;;;;;;0.10;0.10;;;17.50;99.90;;;;;;5092926;28;20063;-75
2022/09/13 07:43:56;;;;;;;0.10;0.10;;;17.50;99.90;;;;;;5092636;28;20034;-74
2022/09/13 07:46:23;;;;;;;0.10;0.10;;;17.70;99.90;;;;;;5091261;28;20020;-74
2022/09/13 07:48:52;;;;;;;0.10;0.10;;;17.80;99.90;;;;;;5092420;28;20058;-76
2022/09/13 07:51:20;;;;;;;0.10;0.10;;;17.80;99.90;;;;;;5092472;28;20028;-74
2022/09/13 07:53:48;;;;;;;0.10;0.10;;;18.00;99.90;;;;;;5092550;28;20028;-75
2022/09/13 07:56:16;;;;;;;0.10;0.10;;;18.10;99.90;;;;;;5092257;28;20076;-74
2022/09/13 07:58:44;;;;;;;0.10;0.10;;;18.20;99.90;;;;;;5091911;28;20031;-75
2022/09/13 08:01:16;;;;;;;0.00;0.00;;;18.20;99.90;;;;;;5092031;28;20020;-74
2022/09/13 08:03:43;;;;;;;0.00;0.00;;;18.30;99.90;;;;;;5090915;28;20502;-75
2022/09/13 08:06:09;;;;;;;0.10;0.10;;;18.50;99.90;;;;;;5092020;28;20027;-75
2022/09/13 08:08:36;;;;;;;0.10;0.10;;;18.60;99.90;;;;;;5090689;28;20020;-75
2022/09/13 08:11:05;;;;;;;0.00;0.00;;;18.60;99.90;;;;;;5091930;28;20042;-75
2022/09/13 08:13:31;;;;;;;0.10;0.10;;;18.60;99.90;;;;;;5092010;28;20039;-75
2022/09/13 08:16:03;;;;;;;0.10;0.10;;;18.70;99.90;;;;;;5092231;28;20047;-74
2022/09/13 08:18:29;;;;;;;0.10;0.10;;;18.80;99.90;;;;;;5092167;28;20024;-75
2022/09/13 08:20:57;;;;;;;0.10;0.10;;;18.90;99.90;;;;;;5092175;28;20032;-75
2022/09/13 08:23:23;;;;;;;0.00;0.00;;;19.10;99.90;;;;;;5092060;28;20393;-75
2022/09/13 08:25:49;;;;;;;0.10;0.10;;;19.30;99.90;;;;;;5091985;28;20024;-75
2022/09/13 08:28:17;;;;;;;0.00;0.00;;;19.50;99.90;;;;;;5090735;28;20020;-75
2022/09/13 08:30:43;;;;;;;0.00;0.00;;;19.80;99.90;;;;;;5092041;28;20081;-75
2022/09/13 08:33:10;;;;;;;0.05;0.05;;;20.10;99.90;;;;;;5090793;28;20032;-75
2022/09/13 08:35:36;;;;;;;0.03;0.03;;;20.30;99.90;;;;;;5091908;28;20024;-76
2022/09/13 08:38:03;;;;;;;0.10;0.10;;;20.60;99.90;;;;;;5092146;28;20391;-75
2022/09/13 08:40:33;;;;;;;0.00;0.00;;;20.80;99.90;;;;;;5091939;28;20031;-74
2022/09/13 08:43:19;;;;;;;0.00;0.00;;;21.00;99.90;;;;;;5073694;28;20063;-75
2022/09/13 08:46:03;;;;;;;0.10;0.10;;;21.10;99.90;;;;;;5091815;28;20073;-75
2022/09/13 08:48:38;;;;;;;0.00;0.00;;;21.20;94.80;;;;;;5090370;28;20491;-75
2022/09/13 08:51:29;;;;;;;0.25;0.25;;;21.50;93.90;;;;;;5090614;28;20565;-75
2022/09/13 08:53:56;;;;;;;0.10;0.10;;;21.70;93.10;;;;;;5091839;28;20036;-75
2022/09/13 08:56:34;;;;;;;0.00;0.00;;;22.10;91.70;;;;;;5091783;28;20269;-74
2022/09/13 08:59:23;;;;;;;0.00;0.00;;;22.30;90.40;;;;;;5091903;28;20028;-75
2022/09/13 09:02:08;;;;;;;0.00;0.00;;;22.70;90.00;;;;;;5091722;28;20028;-76
2022/09/13 09:04:40;;;;;;;0.00;0.00;;;23.20;86.10;;;;;;5091763;28;20107;-74
2022/09/13 09:07:25;;;;;;;0.00;0.00;;;23.50;81.90;;;;;;5090247;28;20081;-74
2022/09/13 09:09:59;;;;;;;0.10;0.10;;;23.70;78.50;;;;;;5090413;28;20024;-74
2022/09/13 09:12:41;;;;;;;0.00;0.00;;;23.80;75.10;;;;;;5095396;28;20024;-74
2022/09/13 09:15:19;;;;;;;0.00;0.00;;;23.50;77.20;;;;;;5095356;28;20035;-74
2022/09/13 09:17:49;;;;;;;0.00;0.00;;;23.80;77.30;;;;;;5095350;28;20548;-74
2022/09/13 09:20:31;;;;;;;0.00;0.00;;;23.80;75.60;;;;;;5095303;28;20031;-74
2022/09/13 09:23:19;;;;;;;0.00;0.00;;;23.70;77.50;;;;;;5095247;28;20031;-74
2022/09/13 09:25:45;;;;;;;0.65;0.65;;;23.30;77.30;;;;;;5094740;28;20059;-74
2022/09/13 09:28:14;;;;;;;0.00;0.00;;;23.50;79.60;;;;;;5095407;28;20028;-75
2022/09/13 09:30:48;;;;;;;0.00;0.00;;;23.50;79.10;;;;;;5095251;28;20387;-75
2022/09/13 09:33:45;;;;;;;0.00;0.00;;;23.30;77.30;;;;;;5094783;28;20027;-75
2022/09/13 09:36:38;;;;;;;0.00;0.00;;;23.60;78.40;;;;;;5095019;28;20020;-75
2022/09/13 09:39:08;;;;;;;0.00;0.00;;;24.00;76.90;;;;;;5094913;28;20506;-76
2022/09/13 09:41:35;;;;;;;0.00;0.00;;;24.30;76.90;;;;;;5094857;28;20020;-76
2022/09/13 09:44:22;;;;;;;0.20;0.17;;;24.50;77.90;;;;;;5094672;28;20027;-77
2022/09/13 09:47:10;;;;;;;6.18;1.00;;;24.50;73.70;;;;;;5094562;28;20043;-75
2022/09/13 09:50:08;;;;;;;0.00;0.00;;;24.30;74.70;;;;;;5094583;28;20032;-76
2022/09/13 09:52:45;;;;;;;0.00;0.00;;;24.80;74.00;;;;;;5093751;28;20028;-75
2022/09/13 09:55:31;;;;;;;0.10;0.10;;;25.50;72.00;;;;;;5092955;28;20471;-76
2022/09/13 09:58:05;;;;;;;0.00;0.00;;;25.60;68.00;;;;;;5094271;28;20466;-75
2022/09/13 10:00:34;;;;;;;0.00;0.00;;;25.70;68.70;;;;;;5093014;28;20085;-76
2022/09/13 10:03:15;;;;;;;0.00;0.00;;;26.30;68.00;;;;;;5093499;28;20063;-76
2022/09/13 10:05:42;;;;;;;0.03;0.03;;;26.90;66.00;;;;;;5093895;28;20428;-75
2022/09/13 10:08:32;;;;;;;0.00;0.00;;;27.30;62.70;;;;;;5092868;28;20500;-75
2022/09/13 10:10:59;;;;;;;0.00;0.00;;;27.70;61.80;;;;;;5094038;28;20472;-75
2022/09/13 10:13:26;;;;;;;0.40;0.30;;;28.10;61.10;;;;;;5094085;28;20044;-75
2022/09/13 10:16:25;;;;;;;0.00;0.00;;;28.10;60.60;;;;;;5093794;28;20517;-76
2022/09/13 10:18:51;;;;;;;0.00;0.00;;;28.20;58.50;;;;;;5090904;28;20040;-75
2022/09/13 10:21:16;;;;;;;0.00;0.00;;;28.40;59.20;;;;;;5093438;28;20382;-75
2022/09/13 10:23:43;;;;;;;0.00;0.00;;;28.40;58.00;;;;;;5092281;28;20024;-75
2022/09/13 10:26:16;;;;;;;0.13;0.13;;;28.50;57.70;;;;;;5084396;28;20024;-76
2022/09/13 10:28:55;;;;;;;0.30;0.10;;;28.50;57.40;;;;;;5080521;28;20015;-75
2022/09/13 10:31:28;;;;;;;0.00;0.00;;;29.00;57.00;;;;;;5093815;28;20024;-76
2022/09/13 10:33:54;;;;;;;0.00;0.00;;;29.20;56.80;;;;;;5092900;28;20020;-75
2022/09/13 10:36:32;;;;;;;0.10;0.08;;;29.20;55.10;;;;;;5093644;28;20098;-75
2022/09/13 10:39:04;;;;;;;0.00;0.00;;;29.40;56.80;;;;;;5093671;28;20240;-76
2022/09/13 10:41:33;;;;;;;0.00;0.00;;;29.80;55.70;;;;;;5089962;28;20016;-75
2022/09/13 10:44:00;;;;;;;0.10;0.10;;;29.40;55.00;;;;;;5091180;28;20031;-75
2022/09/13 10:46:29;;;;;;;0.10;0.10;;;28.80;55.70;;;;;;5091988;28;20527;-75
2022/09/13 10:48:56;;;;;;;0.00;0.00;;;28.30;56.50;;;;;;5091540;28;20039;-75
2022/09/13 10:51:24;;;;;;;0.00;0.00;;;28.70;56.50;;;;;;5092170;28;20020;-75
2022/09/13 10:54:05;;;;;;;0.00;0.00;;;29.40;55.50;;;;;;5093209;28;20024;-75
2022/09/13 10:56:31;;;;;;;0.00;0.00;;;29.80;54.90;;;;;;5093350;28;20031;-75
2022/09/13 10:59:16;;;;;;;0.10;0.10;;;30.20;53.50;;;;;;5093276;28;20036;-74
2022/09/13 11:01:55;;;;;;;0.00;0.00;;;30.10;53.40;;;;;;5072772;28;20025;-75
2022/09/13 11:04:27;;;;;;;0.00;0.00;;;30.10;53.70;;;;;;5072872;28;20024;-74
2022/09/13 11:07:22;;;;;;;5.15;0.25;;;30.10;53.30;;;;;;5071441;28;20032;-74
2022/09/13 11:10:19;;;;;;;0.35;0.22;;;30.50;53.10;;;;;;5072659;28;20479;-75
2022/09/13 11:12:50;;;;;;;0.00;0.00;;;30.50;52.30;;;;;;5078893;28;20022;-74
2022/09/13 11:15:38;;;;;;;0.00;0.00;;;30.20;52.00;;;;;;5093386;28;20391;-74
2022/09/13 11:18:37;;;;;;;0.00;0.00;;;30.70;52.40;;;;;;5092211;28;20091;-74
2022/09/13 11:21:26;;;;;;;0.00;0.00;;;30.90;51.50;;;;;;5091686;28;20031;-74
2022/09/13 11:24:17;;;;;;;0.15;0.15;;;30.90;51.00;;;;;;5091139;28;20025;-75
2022/09/13 11:27:01;;;;;;;0.00;0.00;;;30.40;50.80;;;;;;5088946;28;20494;-75
2022/09/13 11:29:46;;;;;;;0.13;0.10;;;30.20;50.30;;;;;;5087515;28;20028;-75
2022/09/13 11:32:54;;;;;;;0.00;0.00;;;29.70;50.90;;;;;;5093312;28;20403;-75
2022/09/13 11:35:33;;;;;;;0.00;0.00;;;29.60;52.70;;;;;;5090866;28;20421;-75
2022/09/13 11:38:17;;;;;;;0.20;0.20;;;30.80;49.70;;;;;;5091095;28;20024;-75
2022/09/13 11:41:09;;;;;;;0.00;0.00;;;31.40;49.10;;;;;;5092006;28;20032;-75
2022/09/13 11:43:53;;;;;;;0.00;0.00;;;31.60;49.20;;;;;;5073089;28;20085;-77
2022/09/13 11:46:21;;;;;;;0.00;0.00;;;31.70;49.20;;;;;;5071888;28;20025;-74
2022/09/13 11:49:05;;;;;;;0.00;0.00;;;31.50;48.40;;;;;;5071594;28;20039;-74
2022/09/13 11:52:00;;;;;;;0.32;0.10;;;31.70;49.70;;;;;;5092198;28;20048;-74
2022/09/13 11:54:41;;;;;;;0.10;0.10;;;31.80;49.00;;;;;;5091861;28;20069;-74
2022/09/13 11:57:16;;;;;;;0.00;0.00;;;31.80;49.00;;;;;;5091860;28;20488;-75
2022/09/13 11:59:55;;;;;;;0.50;0.50;;;32.00;48.80;;;;;;5092045;28;20391;-75
2022/09/13 12:02:33;;;;;;;0.82;0.82;;;32.00;48.50;;;;;;5090798;28;20387;-75
2022/09/13 12:05:06;;;;;;;0.10;0.10;;;32.20;49.90;;;;;;5090581;28;20059;-75
2022/09/13 12:07:48;;;;;;;4.00;1.95;;;32.00;49.00;;;;;;5091134;28;20332;-75
2022/09/13 12:10:24;;;;;;;0.00;0.00;;;31.70;47.40;;;;;;5090508;28;20024;-75
2022/09/13 12:12:52;;;;;;;0.00;0.00;;;31.10;48.50;;;;;;5089868;28;20059;-75
2022/09/13 12:15:34;;;;;;;0.00;0.00;;;30.70;50.70;;;;;;5090684;28;20027;-75
2022/09/13 12:18:33;;;;;;;0.00;0.00;;;30.50;47.80;;;;;;5092227;28;20107;-75
2022/09/13 12:21:10;;;;;;;0.10;0.10;;;30.70;46.40;;;;;;5091321;28;20032;-75
2022/09/13 12:23:45;;;;;;;0.00;0.00;;;30.40;48.50;;;;;;5091673;28;20016;-74
2022/09/13 12:26:43;;;;;;;0.00;0.00;;;30.20;48.10;;;;;;5091863;28;20024;-75
2022/09/13 12:29:27;;;;;;;0.00;0.00;;;29.60;48.30;;;;;;5090629;28;20380;-74
2022/09/13 12:32:00;;;;;;;0.32;0.20;;;29.50;46.90;;;;;;5091992;28;20031;-75
2022/09/13 12:34:34;;;;;;;0.00;0.00;;;29.10;47.50;;;;;;5092084;28;20035;-74
2022/09/13 12:37:19;;;;;;;0.00;0.00;;;29.40;47.90;;;;;;5091923;28;20030;-74
2022/09/13 12:39:53;;;;;;;0.00;0.00;;;29.70;48.30;;;;;;5091889;28;20024;-74
2022/09/13 12:42:49;;;;;;;0.00;0.00;;;29.80;45.10;;;;;;5091860;28;20552;-74
2022/09/13 12:45:44;;;;;;;0.00;0.00;;;29.80;47.00;;;;;;5091478;28;20027;-75
2022/09/13 12:48:13;;;;;;;0.00;0.00;;;29.70;46.40;;;;;;5091821;28;20024;-75
2022/09/13 12:50:51;;;;;;;0.38;0.38;;;29.50;47.20;;;;;;5091713;28;20024;-74
2022/09/13 12:53:17;;;;;;;0.25;0.20;;;29.50;48.00;;;;;;5091557;28;20042;-74
2022/09/13 12:56:15;;;;;;;0.00;0.00;;;29.30;47.60;;;;;;5091557;28;20020;-74
2022/09/13 12:58:53;;;;;;;0.00;0.00;;;29.50;48.40;;;;;;5081213;28;20028;-74
2022/09/13 13:01:25;;;;;;;0.00;0.00;;;29.30;48.70;;;;;;5091590;28;20089;-74
2022/09/13 13:03:56;;;;;;;0.00;0.00;;;29.30;48.80;;;;;;5090360;28;20024;-74
2022/09/13 13:06:27;;;;;;;0.00;0.00;;;29.40;49.30;;;;;;5090248;28;20020;-75
2022/09/13 13:08:57;;;;;;;0.00;0.00;;;29.20;49.70;;;;;;5091463;28;20103;-74
2022/09/13 13:11:30;;;;;;;0.00;0.00;;;29.00;51.70;;;;;;5090196;28;20020;-74
2022/09/13 13:14:08;;;;;;;0.00;0.00;;;29.00;51.60;;;;;;5091683;28;20028;-74
2022/09/13 13:16:37;;;;;;;0.05;0.05;;;28.90;51.40;;;;;;5089868;28;20123;-74
2022/09/13 13:19:23;;;;;;;0.00;0.00;;;28.80;52.20;;;;;;5091116;28;20020;-73
2022/09/13 13:21:49;;;;;;;0.00;0.00;;;28.70;52.50;;;;;;5091091;28;20383;-74